createdAt,value
2023-05-09T03:43:27.702Z,6.79
2023-05-09T03:46:31.457Z,6.79
2023-05-09T03:49:34.293Z,6.33
2023-05-09T03:52:37.416Z,6.40
2023-05-09T03:55:40.976Z,6.43
2023-05-09T03:58:44.314Z,6.53
2023-05-09T04:01:47.200Z,6.66
2023-05-09T04:04:50.201Z,6.89
2023-05-09T04:07:53.776Z,6.96
2023-05-09T04:10:57.444Z,7.03
2023-05-09T04:14:00.160Z,7.12
2023-05-09T04:17:03.561Z,7.20
2023-05-09T04:20:08.323Z,7.35
2023-05-09T04:23:11.369Z,7.41
2023-05-09T04:26:15.591Z,7.57
2023-05-09T04:29:19.000Z,7.61
2023-05-09T04:32:23.342Z,7.75
2023-05-09T04:35:27.245Z,7.86
2023-05-09T04:38:30.075Z,8.00
2023-05-09T04:41:33.212Z,8.09
2023-05-09T04:44:36.123Z,8.16
2023-05-09T04:47:39.758Z,8.28
2023-05-09T04:50:42.496Z,8.33
2023-05-09T04:53:45.668Z,8.38
2023-05-09T04:56:50.128Z,8.49
2023-05-09T04:59:54.013Z,8.61
2023-05-09T05:02:56.918Z,8.72
2023-05-09T05:06:00.791Z,8.76
2023-05-09T05:09:03.725Z,8.93
2023-05-09T05:12:09.624Z,9.03
2023-05-09T05:15:13.866Z,9.09
2023-05-09T05:18:18.293Z,9.19
2023-05-09T05:21:23.732Z,9.37
2023-05-09T05:24:29.464Z,9.50
2023-05-09T05:27:32.241Z,9.59
2023-05-09T05:30:35.392Z,9.72
2023-05-09T05:33:38.011Z,9.84
2023-05-09T05:36:41.292Z,9.90
2023-05-09T05:39:44.506Z,10.05
2023-05-09T05:42:47.962Z,10.12
2023-05-09T05:45:51.238Z,10.32
2023-05-09T05:48:57.588Z,10.47
2023-05-09T05:52:00.626Z,10.64
2023-05-09T05:55:03.969Z,10.75
2023-05-09T05:58:06.954Z,10.88
2023-05-09T06:01:10.894Z,11.02
2023-05-09T06:04:13.898Z,11.29
2023-05-09T06:07:17.859Z,11.38
2023-05-09T06:10:22.307Z,11.45
2023-05-09T06:13:24.962Z,11.56
2023-05-09T06:16:28.274Z,11.67
2023-05-09T06:19:30.902Z,11.86
2023-05-09T06:22:34.564Z,12.00
2023-05-09T06:25:37.284Z,12.02
2023-05-09T06:28:40.219Z,12.22
2023-05-09T06:31:42.882Z,12.34
2023-05-09T06:34:45.769Z,12.52
2023-05-09T06:37:49.180Z,12.62
2023-05-09T06:40:52.332Z,12.71
2023-05-09T06:43:55.009Z,12.87
2023-05-09T06:46:57.858Z,12.93
2023-05-09T06:50:00.723Z,12.92
2023-05-09T06:53:03.607Z,13.00
2023-05-09T06:56:06.606Z,13.21
2023-05-09T06:59:13.253Z,13.41
2023-05-09T07:02:16.327Z,13.45
2023-05-09T07:05:19.509Z,13.62
2023-05-09T07:08:22.123Z,13.80
2023-05-09T07:11:24.942Z,13.87
2023-05-09T07:14:27.537Z,13.91
2023-05-09T07:17:30.466Z,14.12
2023-05-09T07:20:33.934Z,14.30
2023-05-09T07:23:36.913Z,14.49
2023-05-09T07:26:39.578Z,14.61
2023-05-09T07:29:42.531Z,14.75
2023-05-09T07:32:45.224Z,14.84
2023-05-09T07:35:53.019Z,14.93
2023-05-09T07:38:55.854Z,14.77
2023-05-09T07:41:58.893Z,14.91
2023-05-09T07:45:01.493Z,15.12
2023-05-09T07:48:06.791Z,15.17
2023-05-09T07:51:09.405Z,15.14
2023-05-09T07:54:15.013Z,15.28
2023-05-09T07:57:17.996Z,15.30
2023-05-09T08:00:23.921Z,15.37
2023-05-09T08:03:26.902Z,15.55
2023-05-09T08:06:29.980Z,15.83
2023-05-09T08:09:33.150Z,16.05
2023-05-09T08:12:35.849Z,16.24
2023-05-09T08:15:38.728Z,16.20
2023-05-09T08:18:41.276Z,16.08
2023-05-09T08:21:47.217Z,16.11
2023-05-09T08:24:49.901Z,16.20
2023-05-09T08:27:54.974Z,16.07
2023-05-09T08:30:57.908Z,16.19
2023-05-09T08:34:01.141Z,16.38
2023-05-09T08:37:04.624Z,16.53
2023-05-09T08:40:08.208Z,16.80
2023-05-09T08:43:12.410Z,16.79
2023-05-09T08:46:17.130Z,16.70
2023-05-09T08:49:22.021Z,16.89
2023-05-09T08:52:25.014Z,17.19
2023-05-09T08:55:28.657Z,17.52
2023-05-09T08:58:33.973Z,17.77
2023-05-09T09:01:36.898Z,18.05
2023-05-09T09:04:40.092Z,18.22
2023-05-09T09:07:43.017Z,18.45
2023-05-09T09:10:49.823Z,18.83
2023-05-09T09:13:54.227Z,18.75
2023-05-09T09:17:00.573Z,18.90
2023-05-09T09:20:05.903Z,18.62
2023-05-09T09:23:16.822Z,18.25
2023-05-09T09:26:19.498Z,18.70
2023-05-09T09:29:23.040Z,18.85
2023-05-09T09:32:34.108Z,19.21
2023-05-09T09:36:17.417Z,19.34
2023-05-09T09:39:21.751Z,19.71
2023-05-09T09:42:24.674Z,19.60
2023-05-09T09:45:27.868Z,19.50
2023-05-09T09:48:37.869Z,19.96
2023-05-09T09:51:44.250Z,20.20
2023-05-09T09:54:47.758Z,19.86
2023-05-09T09:57:51.444Z,20.05
2023-05-09T10:01:13.816Z,20.01
2023-05-09T10:04:18.043Z,20.02
2023-05-09T10:07:25.936Z,19.98
2023-05-09T10:10:34.395Z,20.04
2023-05-09T10:13:38.494Z,20.63
2023-05-09T10:16:44.614Z,21.27
2023-05-09T10:19:50.522Z,21.90
2023-05-09T10:22:56.296Z,21.51
2023-05-09T10:26:09.459Z,21.31
2023-05-09T10:29:12.948Z,21.65
2023-05-09T10:32:23.446Z,21.41
2023-05-09T10:35:29.921Z,20.89
2023-05-09T10:38:32.539Z,20.82
2023-05-09T10:41:37.025Z,20.35
2023-05-09T10:44:39.867Z,20.04
2023-05-09T10:47:44.448Z,20.74
2023-05-09T10:50:48.218Z,20.95
2023-05-09T10:53:51.603Z,20.68
2023-05-09T10:56:54.818Z,20.69
2023-05-09T11:00:00.241Z,20.69
2023-05-09T11:03:08.253Z,20.47
2023-05-09T11:06:39.927Z,20.86
2023-05-09T11:10:08.240Z,21.38
2023-05-09T11:13:11.171Z,20.97
2023-05-09T11:16:14.006Z,20.84
2023-05-09T11:19:37.702Z,21.51
2023-05-09T11:22:42.728Z,22.25
2023-05-09T11:25:47.763Z,22.45
2023-05-09T11:28:56.534Z,22.05
2023-05-09T11:32:07.869Z,21.40
2023-05-09T11:35:17.004Z,21.86
2023-05-09T11:38:22.015Z,22.27
2023-05-09T11:41:27.879Z,22.69
2023-05-09T11:44:35.353Z,22.46
2023-05-09T11:47:38.576Z,21.85
2023-05-09T11:50:41.900Z,22.02
2023-05-09T11:53:51.425Z,22.46
2023-05-09T11:56:54.398Z,23.66
2023-05-09T11:59:57.480Z,25.69
2023-05-09T12:03:01.092Z,27.05
2023-05-09T12:06:04.197Z,26.20
2023-05-09T12:09:09.416Z,24.76
2023-05-09T12:12:13.735Z,24.72
2023-05-09T12:15:17.663Z,23.91
2023-05-09T12:18:20.862Z,24.28
2023-05-09T12:21:23.567Z,28.72
2023-05-09T12:24:28.260Z,32.23
2023-05-09T12:27:33.088Z,35.66
2023-05-09T12:30:36.846Z,37.64
2023-05-09T12:33:39.820Z,37.58
2023-05-09T12:36:50.816Z,36.82
2023-05-09T12:40:15.410Z,38.00
2023-05-09T12:43:18.871Z,38.10
2023-05-09T12:46:22.101Z,39.90
2023-05-09T12:49:26.181Z,39.54
2023-05-09T12:52:46.923Z,39.50
2023-05-09T12:56:01.383Z,38.58
2023-05-09T12:59:04.024Z,33.48
2023-05-09T13:02:07.807Z,30.28
2023-05-09T13:05:11.583Z,30.45
2023-05-09T13:08:14.532Z,31.63
2023-05-09T13:11:19.248Z,29.52
2023-05-09T13:14:23.215Z,28.08
2023-05-09T13:17:26.047Z,29.45
2023-05-09T13:20:29.196Z,28.84
2023-05-09T13:23:31.858Z,27.38
2023-05-09T13:26:34.943Z,26.35
2023-05-09T13:29:37.532Z,25.63
2023-05-09T13:32:41.257Z,26.77
2023-05-09T13:35:43.968Z,27.42
2023-05-09T13:38:47.104Z,27.18
2023-05-09T13:41:52.872Z,26.80
2023-05-09T13:44:55.866Z,26.11
2023-05-09T13:47:58.602Z,28.85
2023-05-09T13:51:06.307Z,33.13
2023-05-09T13:54:15.016Z,31.01
2023-05-09T13:57:18.070Z,27.35
2023-05-09T14:00:21.604Z,25.10
2023-05-09T14:03:24.650Z,23.15
2023-05-09T14:06:29.064Z,22.51
2023-05-09T14:09:38.579Z,22.33
2023-05-09T14:12:44.375Z,22.37
2023-05-09T14:15:48.295Z,23.68
2023-05-09T14:18:50.977Z,24.08
2023-05-09T14:21:53.998Z,22.96
2023-05-09T14:24:57.515Z,23.24
2023-05-09T14:28:00.657Z,25.35
2023-05-09T14:31:03.602Z,32.78
2023-05-09T14:34:06.645Z,36.61
2023-05-09T14:37:13.737Z,40.09
2023-05-09T14:40:17.247Z,40.81
2023-05-09T14:43:21.601Z,36.13
2023-05-09T14:46:24.993Z,32.67
2023-05-09T14:49:27.955Z,34.18
2023-05-09T14:52:31.068Z,31.94
2023-05-09T14:55:33.825Z,30.82
2023-05-09T14:58:37.019Z,32.93
2023-05-09T15:01:39.896Z,36.60
2023-05-09T15:04:43.902Z,40.32
2023-05-09T15:07:46.593Z,41.45
2023-05-09T15:10:50.852Z,35.77
2023-05-09T15:13:54.001Z,30.07
2023-05-09T15:17:01.367Z,27.27
2023-05-09T15:20:04.606Z,25.08
2023-05-09T15:23:08.047Z,26.52
2023-05-09T15:26:12.382Z,33.25
